sensor_id;sensor_type;location;lat;lon;timestamp;P1;durP1;ratioP1;P2;durP2;ratioP2
56427;SDS011;42331;53.578;9.760;2023-06-26T00:01:36;1.33;;;0.83;;
56427;SDS011;42331;53.578;9.760;2023-06-26T00:04:06;1.50;;;0.90;;
56427;SDS011;42331;53.578;9.760;2023-06-26T00:06:37;3.77;;;2.30;;
56427;SDS011;42331;53.578;9.760;2023-06-26T00:09:08;2.17;;;1.08;;
56427;SDS011;42331;53.578;9.760;2023-06-26T00:11:39;1.63;;;1.00;;
56427;SDS011;42331;53.578;9.760;2023-06-26T00:14:09;2.10;;;1.33;;
56427;SDS011;42331;53.578;9.760;2023-06-26T00:16:40;1.80;;;1.27;;
56427;SDS011;42331;53.578;9.760;2023-06-26T00:19:12;1.90;;;1.20;;
56427;SDS011;42331;53.578;9.760;2023-06-26T00:21:43;2.17;;;1.20;;
56427;SDS011;42331;53.578;9.760;2023-06-26T00:24:17;1.30;;;0.90;;
56427;SDS011;42331;53.578;9.760;2023-06-26T00:26:48;1.97;;;1.10;;
56427;SDS011;42331;53.578;9.760;2023-06-26T00:29:19;1.90;;;1.10;;
56427;SDS011;42331;53.578;9.760;2023-06-26T00:31:50;1.87;;;1.00;;
56427;SDS011;42331;53.578;9.760;2023-06-26T00:34:21;1.90;;;1.20;;
56427;SDS011;42331;53.578;9.760;2023-06-26T00:36:52;2.57;;;1.30;;
56427;SDS011;42331;53.578;9.760;2023-06-26T00:39:22;2.20;;;1.30;;
56427;SDS011;42331;53.578;9.760;2023-06-26T00:41:55;1.65;;;0.95;;
56427;SDS011;42331;53.578;9.760;2023-06-26T00:44:26;2.37;;;1.03;;
56427;SDS011;42331;53.578;9.760;2023-06-26T00:53:36;2.20;;;1.08;;
56427;SDS011;42331;53.578;9.760;2023-06-26T00:56:06;1.30;;;0.87;;
56427;SDS011;42331;53.578;9.760;2023-06-26T00:58:38;2.05;;;1.33;;
56427;SDS011;42331;53.578;9.760;2023-06-26T01:01:09;1.20;;;0.90;;
56427;SDS011;42331;53.578;9.760;2023-06-26T01:03:44;2.22;;;1.35;;
56427;SDS011;42331;53.578;9.760;2023-06-26T01:08:47;1.63;;;1.23;;
56427;SDS011;42331;53.578;9.760;2023-06-26T01:13:50;1.67;;;1.10;;
56427;SDS011;42331;53.578;9.760;2023-06-26T01:16:22;1.50;;;0.95;;
56427;SDS011;42331;53.578;9.760;2023-06-26T01:18:54;1.63;;;0.85;;
56427;SDS011;42331;53.578;9.760;2023-06-26T01:21:25;1.40;;;0.90;;
56427;SDS011;42331;53.578;9.760;2023-06-26T01:24:07;1.42;;;0.90;;
56427;SDS011;42331;53.578;9.760;2023-06-26T01:26:50;1.92;;;0.98;;
56427;SDS011;42331;53.578;9.760;2023-06-26T01:29:21;1.60;;;1.05;;
56427;SDS011;42331;53.578;9.760;2023-06-26T01:31:54;1.52;;;0.80;;
56427;SDS011;42331;53.578;9.760;2023-06-26T01:34:25;1.10;;;0.90;;
56427;SDS011;42331;53.578;9.760;2023-06-26T01:39:27;1.70;;;0.90;;
56427;SDS011;42331;53.578;9.760;2023-06-26T01:41:58;2.63;;;1.30;;
56427;SDS011;42331;53.578;9.760;2023-06-26T01:44:29;2.58;;;1.13;;
56427;SDS011;42331;53.578;9.760;2023-06-26T01:47:04;1.80;;;1.00;;
56427;SDS011;42331;53.578;9.760;2023-06-26T01:55:17;2.08;;;1.05;;
56427;SDS011;42331;53.578;9.760;2023-06-26T01:57:56;2.20;;;1.10;;
56427;SDS011;42331;53.578;9.760;2023-06-26T02:00:29;1.73;;;1.00;;
56427;SDS011;42331;53.578;9.760;2023-06-26T02:03:01;1.45;;;0.90;;
56427;SDS011;42331;53.578;9.760;2023-06-26T02:05:33;1.65;;;0.80;;
56427;SDS011;42331;53.578;9.760;2023-06-26T02:08:04;2.10;;;1.30;;
56427;SDS011;42331;53.578;9.760;2023-06-26T02:10:35;1.50;;;0.93;;
56427;SDS011;42331;53.578;9.760;2023-06-26T02:13:05;1.60;;;1.03;;
56427;SDS011;42331;53.578;9.760;2023-06-26T02:15:36;1.13;;;0.67;;
56427;SDS011;42331;53.578;9.760;2023-06-26T02:18:07;1.67;;;1.07;;
56427;SDS011;42331;53.578;9.760;2023-06-26T02:20:38;1.80;;;1.10;;
56427;SDS011;42331;53.578;9.760;2023-06-26T02:23:09;2.08;;;1.30;;
56427;SDS011;42331;53.578;9.760;2023-06-26T02:25:40;2.27;;;0.80;;
56427;SDS011;42331;53.578;9.760;2023-06-26T02:28:11;1.63;;;1.00;;
56427;SDS011;42331;53.578;9.760;2023-06-26T02:30:41;2.10;;;1.07;;
56427;SDS011;42331;53.578;9.760;2023-06-26T02:33:12;1.40;;;0.97;;
56427;SDS011;42331;53.578;9.760;2023-06-26T02:35:43;2.10;;;1.20;;
56427;SDS011;42331;53.578;9.760;2023-06-26T02:38:14;1.50;;;1.00;;
56427;SDS011;42331;53.578;9.760;2023-06-26T02:40:44;1.57;;;0.90;;
56427;SDS011;42331;53.578;9.760;2023-06-26T02:43:15;2.00;;;1.20;;
56427;SDS011;42331;53.578;9.760;2023-06-26T02:45:46;1.60;;;1.00;;
56427;SDS011;42331;53.578;9.760;2023-06-26T02:48:17;1.47;;;1.00;;
56427;SDS011;42331;53.578;9.760;2023-06-26T02:50:47;1.77;;;1.00;;
56427;SDS011;42331;53.578;9.760;2023-06-26T02:53:18;1.73;;;1.10;;
56427;SDS011;42331;53.578;9.760;2023-06-26T02:55:49;2.10;;;1.00;;
56427;SDS011;42331;53.578;9.760;2023-06-26T02:58:20;2.00;;;1.10;;
56427;SDS011;42331;53.578;9.760;2023-06-26T03:00:50;1.20;;;0.80;;
56427;SDS011;42331;53.578;9.760;2023-06-26T03:03:23;1.83;;;1.00;;
56427;SDS011;42331;53.578;9.760;2023-06-26T03:05:54;2.10;;;1.00;;
56427;SDS011;42331;53.578;9.760;2023-06-26T03:08:25;1.57;;;0.97;;
56427;SDS011;42331;53.578;9.760;2023-06-26T03:10:55;3.20;;;1.60;;
56427;SDS011;42331;53.578;9.760;2023-06-26T03:13:26;1.80;;;1.17;;
56427;SDS011;42331;53.578;9.760;2023-06-26T03:15:57;1.80;;;0.83;;
56427;SDS011;42331;53.578;9.760;2023-06-26T03:18:28;1.10;;;0.60;;
56427;SDS011;42331;53.578;9.760;2023-06-26T03:20:58;1.57;;;0.87;;
56427;SDS011;42331;53.578;9.760;2023-06-26T03:23:30;1.08;;;0.70;;
56427;SDS011;42331;53.578;9.760;2023-06-26T03:26:00;1.73;;;1.00;;
56427;SDS011;42331;53.578;9.760;2023-06-26T03:28:31;2.57;;;1.40;;
56427;SDS011;42331;53.578;9.760;2023-06-26T03:31:02;1.90;;;1.00;;
56427;SDS011;42331;53.578;9.760;2023-06-26T03:33:33;1.50;;;0.70;;
56427;SDS011;42331;53.578;9.760;2023-06-26T03:36:03;2.70;;;1.27;;
56427;SDS011;42331;53.578;9.760;2023-06-26T03:38:36;1.40;;;0.90;;
56427;SDS011;42331;53.578;9.760;2023-06-26T03:41:06;1.50;;;1.00;;
56427;SDS011;42331;53.578;9.760;2023-06-26T03:43:37;2.17;;;1.10;;
56427;SDS011;42331;53.578;9.760;2023-06-26T03:46:08;1.50;;;0.87;;
56427;SDS011;42331;53.578;9.760;2023-06-26T03:48:39;1.47;;;0.90;;
56427;SDS011;42331;53.578;9.760;2023-06-26T03:51:10;1.73;;;1.00;;
56427;SDS011;42331;53.578;9.760;2023-06-26T03:53:40;0.90;;;0.63;;
56427;SDS011;42331;53.578;9.760;2023-06-26T03:56:11;1.80;;;0.90;;
56427;SDS011;42331;53.578;9.760;2023-06-26T03:58:42;1.97;;;1.10;;
56427;SDS011;42331;53.578;9.760;2023-06-26T04:01:12;2.30;;;1.10;;
56427;SDS011;42331;53.578;9.760;2023-06-26T04:03:43;1.90;;;1.10;;
56427;SDS011;42331;53.578;9.760;2023-06-26T04:06:14;1.93;;;1.17;;
56427;SDS011;42331;53.578;9.760;2023-06-26T04:08:44;1.47;;;0.80;;
56427;SDS011;42331;53.578;9.760;2023-06-26T04:11:15;1.67;;;0.97;;
56427;SDS011;42331;53.578;9.760;2023-06-26T04:13:46;1.77;;;1.17;;
56427;SDS011;42331;53.578;9.760;2023-06-26T04:16:17;1.73;;;1.00;;
56427;SDS011;42331;53.578;9.760;2023-06-26T04:18:49;1.35;;;0.90;;
56427;SDS011;42331;53.578;9.760;2023-06-26T04:21:19;1.60;;;0.90;;
56427;SDS011;42331;53.578;9.760;2023-06-26T04:23:50;1.73;;;1.10;;
56427;SDS011;42331;53.578;9.760;2023-06-26T04:26:21;1.67;;;1.07;;
56427;SDS011;42331;53.578;9.760;2023-06-26T04:28:52;1.47;;;0.80;;
56427;SDS011;42331;53.578;9.760;2023-06-26T04:31:23;2.20;;;1.17;;
56427;SDS011;42331;53.578;9.760;2023-06-26T04:33:54;2.27;;;1.07;;
56427;SDS011;42331;53.578;9.760;2023-06-26T04:36:25;1.77;;;1.00;;
56427;SDS011;42331;53.578;9.760;2023-06-26T04:38:58;1.75;;;1.10;;
56427;SDS011;42331;53.578;9.760;2023-06-26T04:41:29;1.33;;;0.90;;
56427;SDS011;42331;53.578;9.760;2023-06-26T04:44:00;1.90;;;1.07;;
56427;SDS011;42331;53.578;9.760;2023-06-26T04:46:30;2.33;;;1.07;;
56427;SDS011;42331;53.578;9.760;2023-06-26T04:49:01;1.83;;;1.10;;
56427;SDS011;42331;53.578;9.760;2023-06-26T04:54:10;2.40;;;1.20;;
56427;SDS011;42331;53.578;9.760;2023-06-26T04:56:41;2.33;;;1.20;;
56427;SDS011;42331;53.578;9.760;2023-06-26T04:59:13;1.70;;;0.93;;
56427;SDS011;42331;53.578;9.760;2023-06-26T05:01:44;2.22;;;1.25;;
56427;SDS011;42331;53.578;9.760;2023-06-26T05:04:18;1.50;;;0.75;;
56427;SDS011;42331;53.578;9.760;2023-06-26T05:06:48;1.60;;;0.83;;
56427;SDS011;42331;53.578;9.760;2023-06-26T05:09:19;1.20;;;0.80;;
56427;SDS011;42331;53.578;9.760;2023-06-26T05:11:50;2.03;;;0.97;;
56427;SDS011;42331;53.578;9.760;2023-06-26T05:14:21;1.63;;;1.03;;
56427;SDS011;42331;53.578;9.760;2023-06-26T05:16:51;1.70;;;1.13;;
56427;SDS011;42331;53.578;9.760;2023-06-26T05:19:22;1.50;;;0.83;;
56427;SDS011;42331;53.578;9.760;2023-06-26T05:21:53;1.67;;;1.03;;
56427;SDS011;42331;53.578;9.760;2023-06-26T05:24:24;2.60;;;1.10;;
56427;SDS011;42331;53.578;9.760;2023-06-26T05:26:56;1.83;;;1.00;;
56427;SDS011;42331;53.578;9.760;2023-06-26T05:29:27;1.45;;;1.13;;
56427;SDS011;42331;53.578;9.760;2023-06-26T05:31:58;1.55;;;1.00;;
56427;SDS011;42331;53.578;9.760;2023-06-26T05:34:29;2.30;;;1.27;;
56427;SDS011;42331;53.578;9.760;2023-06-26T05:37:02;1.40;;;0.90;;
56427;SDS011;42331;53.578;9.760;2023-06-26T05:39:33;1.60;;;0.70;;
56427;SDS011;42331;53.578;9.760;2023-06-26T05:42:03;1.50;;;0.90;;
56427;SDS011;42331;53.578;9.760;2023-06-26T05:44:34;1.98;;;1.33;;
56427;SDS011;42331;53.578;9.760;2023-06-26T05:47:05;1.67;;;0.80;;
56427;SDS011;42331;53.578;9.760;2023-06-26T05:49:36;1.63;;;0.90;;
56427;SDS011;42331;53.578;9.760;2023-06-26T05:52:07;1.30;;;0.87;;
56427;SDS011;42331;53.578;9.760;2023-06-26T05:54:38;3.15;;;1.30;;
56427;SDS011;42331;53.578;9.760;2023-06-26T05:57:09;2.22;;;1.05;;
56427;SDS011;42331;53.578;9.760;2023-06-26T05:59:42;2.05;;;1.13;;
56427;SDS011;42331;53.578;9.760;2023-06-26T06:02:13;1.48;;;1.00;;
56427;SDS011;42331;53.578;9.760;2023-06-26T06:04:44;1.55;;;1.00;;
56427;SDS011;42331;53.578;9.760;2023-06-26T06:07:15;2.20;;;1.05;;
56427;SDS011;42331;53.578;9.760;2023-06-26T06:09:46;1.80;;;1.20;;
56427;SDS011;42331;53.578;9.760;2023-06-26T06:12:17;1.93;;;1.07;;
56427;SDS011;42331;53.578;9.760;2023-06-26T06:14:48;2.33;;;1.13;;
56427;SDS011;42331;53.578;9.760;2023-06-26T06:17:21;1.90;;;1.17;;
56427;SDS011;42331;53.578;9.760;2023-06-26T06:19:52;1.83;;;1.00;;
56427;SDS011;42331;53.578;9.760;2023-06-26T06:22:23;1.27;;;0.80;;
56427;SDS011;42331;53.578;9.760;2023-06-26T06:24:54;2.30;;;1.10;;
56427;SDS011;42331;53.578;9.760;2023-06-26T06:27:24;2.20;;;1.53;;
56427;SDS011;42331;53.578;9.760;2023-06-26T06:29:55;1.50;;;1.00;;
56427;SDS011;42331;53.578;9.760;2023-06-26T06:32:26;2.60;;;1.00;;
56427;SDS011;42331;53.578;9.760;2023-06-26T06:34:57;1.97;;;1.07;;
56427;SDS011;42331;53.578;9.760;2023-06-26T06:37:27;1.73;;;1.03;;
56427;SDS011;42331;53.578;9.760;2023-06-26T06:40:01;1.92;;;1.15;;
56427;SDS011;42331;53.578;9.760;2023-06-26T06:42:32;1.60;;;1.03;;
56427;SDS011;42331;53.578;9.760;2023-06-26T06:47:35;3.22;;;1.60;;
56427;SDS011;42331;53.578;9.760;2023-06-26T06:50:05;1.87;;;1.10;;
56427;SDS011;42331;53.578;9.760;2023-06-26T06:52:40;1.75;;;0.95;;
56427;SDS011;42331;53.578;9.760;2023-06-26T06:55:12;2.90;;;1.60;;
56427;SDS011;42331;53.578;9.760;2023-06-26T06:57:43;1.70;;;1.10;;
56427;SDS011;42331;53.578;9.760;2023-06-26T07:00:14;1.60;;;1.00;;
56427;SDS011;42331;53.578;9.760;2023-06-26T07:02:45;1.85;;;0.98;;
56427;SDS011;42331;53.578;9.760;2023-06-26T07:05:16;1.83;;;1.13;;
56427;SDS011;42331;53.578;9.760;2023-06-26T07:07:47;2.80;;;1.63;;
56427;SDS011;42331;53.578;9.760;2023-06-26T07:10:18;2.60;;;1.30;;
56427;SDS011;42331;53.578;9.760;2023-06-26T07:12:48;1.57;;;0.93;;
56427;SDS011;42331;53.578;9.760;2023-06-26T07:15:19;1.67;;;1.00;;
56427;SDS011;42331;53.578;9.760;2023-06-26T07:17:50;1.50;;;0.93;;
56427;SDS011;42331;53.578;9.760;2023-06-26T07:20:21;1.60;;;1.07;;
56427;SDS011;42331;53.578;9.760;2023-06-26T07:22:52;2.20;;;1.23;;
56427;SDS011;42331;53.578;9.760;2023-06-26T07:25:23;1.92;;;1.20;;
56427;SDS011;42331;53.578;9.760;2023-06-26T07:27:54;1.63;;;1.03;;
56427;SDS011;42331;53.578;9.760;2023-06-26T07:30:24;1.53;;;0.80;;
56427;SDS011;42331;53.578;9.760;2023-06-26T07:32:55;1.93;;;1.33;;
56427;SDS011;42331;53.578;9.760;2023-06-26T07:35:26;1.80;;;1.10;;
56427;SDS011;42331;53.578;9.760;2023-06-26T07:37:57;1.50;;;0.90;;
56427;SDS011;42331;53.578;9.760;2023-06-26T07:40:28;1.40;;;0.80;;
56427;SDS011;42331;53.578;9.760;2023-06-26T07:42:59;1.57;;;1.00;;
56427;SDS011;42331;53.578;9.760;2023-06-26T07:45:29;1.47;;;0.90;;
56427;SDS011;42331;53.578;9.760;2023-06-26T07:48:00;1.80;;;1.00;;
56427;SDS011;42331;53.578;9.760;2023-06-26T07:50:31;1.93;;;0.90;;
56427;SDS011;42331;53.578;9.760;2023-06-26T07:53:01;1.13;;;0.80;;
56427;SDS011;42331;53.578;9.760;2023-06-26T07:55:32;2.13;;;0.80;;
56427;SDS011;42331;53.578;9.760;2023-06-26T07:58:03;2.53;;;1.13;;
56427;SDS011;42331;53.578;9.760;2023-06-26T08:00:34;1.97;;;1.20;;
56427;SDS011;42331;53.578;9.760;2023-06-26T08:03:04;1.80;;;0.83;;
56427;SDS011;42331;53.578;9.760;2023-06-26T08:05:35;1.63;;;1.03;;
56427;SDS011;42331;53.578;9.760;2023-06-26T08:08:06;2.00;;;1.07;;
56427;SDS011;42331;53.578;9.760;2023-06-26T08:10:36;1.83;;;1.10;;
56427;SDS011;42331;53.578;9.760;2023-06-26T08:13:07;1.80;;;1.10;;
56427;SDS011;42331;53.578;9.760;2023-06-26T08:15:38;2.07;;;1.03;;
56427;SDS011;42331;53.578;9.760;2023-06-26T08:18:09;1.60;;;0.85;;
56427;SDS011;42331;53.578;9.760;2023-06-26T08:20:40;2.13;;;1.20;;
56427;SDS011;42331;53.578;9.760;2023-06-26T08:23:10;2.37;;;1.30;;
56427;SDS011;42331;53.578;9.760;2023-06-26T08:25:41;1.93;;;1.10;;
56427;SDS011;42331;53.578;9.760;2023-06-26T08:28:12;1.97;;;1.10;;
56427;SDS011;42331;53.578;9.760;2023-06-26T08:30:43;1.83;;;1.20;;
56427;SDS011;42331;53.578;9.760;2023-06-26T08:33:13;2.07;;;1.23;;
56427;SDS011;42331;53.578;9.760;2023-06-26T08:35:44;2.70;;;1.37;;
56427;SDS011;42331;53.578;9.760;2023-06-26T08:38:15;1.50;;;1.00;;
56427;SDS011;42331;53.578;9.760;2023-06-26T08:40:45;3.57;;;1.47;;
56427;SDS011;42331;53.578;9.760;2023-06-26T08:43:16;3.10;;;1.50;;
56427;SDS011;42331;53.578;9.760;2023-06-26T08:45:47;2.23;;;1.27;;
56427;SDS011;42331;53.578;9.760;2023-06-26T08:48:21;1.85;;;1.05;;
56427;SDS011;42331;53.578;9.760;2023-06-26T08:50:52;2.80;;;1.73;;
56427;SDS011;42331;53.578;9.760;2023-06-26T08:56:10;2.15;;;1.33;;
56427;SDS011;42331;53.578;9.760;2023-06-26T08:58:44;2.33;;;1.20;;
56427;SDS011;42331;53.578;9.760;2023-06-26T09:01:16;2.40;;;1.25;;
56427;SDS011;42331;53.578;9.760;2023-06-26T09:03:48;3.17;;;1.67;;
56427;SDS011;42331;53.578;9.760;2023-06-26T09:06:18;3.43;;;1.50;;
56427;SDS011;42331;53.578;9.760;2023-06-26T09:08:49;2.40;;;1.63;;
56427;SDS011;42331;53.578;9.760;2023-06-26T09:11:20;2.57;;;1.67;;
56427;SDS011;42331;53.578;9.760;2023-06-26T09:13:51;1.80;;;1.30;;
56427;SDS011;42331;53.578;9.760;2023-06-26T09:16:25;1.77;;;1.10;;
56427;SDS011;42331;53.578;9.760;2023-06-26T09:18:56;3.22;;;1.30;;
56427;SDS011;42331;53.578;9.760;2023-06-26T09:21:27;2.42;;;1.48;;
56427;SDS011;42331;53.578;9.760;2023-06-26T09:23:58;1.70;;;1.00;;
56427;SDS011;42331;53.578;9.760;2023-06-26T09:26:29;2.15;;;1.38;;
56427;SDS011;42331;53.578;9.760;2023-06-26T09:29:01;2.35;;;1.35;;
56427;SDS011;42331;53.578;9.760;2023-06-26T09:31:32;2.63;;;1.50;;
56427;SDS011;42331;53.578;9.760;2023-06-26T09:34:06;2.05;;;1.40;;
56427;SDS011;42331;53.578;9.760;2023-06-26T09:36:37;2.58;;;1.63;;
56427;SDS011;42331;53.578;9.760;2023-06-26T09:39:08;2.80;;;1.30;;
56427;SDS011;42331;53.578;9.760;2023-06-26T09:41:41;2.97;;;1.95;;
56427;SDS011;42331;53.578;9.760;2023-06-26T09:44:14;2.50;;;1.60;;
56427;SDS011;42331;53.578;9.760;2023-06-26T09:46:45;6.55;;;2.38;;
56427;SDS011;42331;53.578;9.760;2023-06-26T09:49:16;4.47;;;2.35;;
56427;SDS011;42331;53.578;9.760;2023-06-26T09:51:48;4.17;;;2.20;;
56427;SDS011;42331;53.578;9.760;2023-06-26T09:54:21;2.75;;;1.80;;
56427;SDS011;42331;53.578;9.760;2023-06-26T09:56:52;3.53;;;2.35;;
56427;SDS011;42331;53.578;9.760;2023-06-26T09:59:25;2.83;;;1.88;;
56427;SDS011;42331;53.578;9.760;2023-06-26T10:01:58;3.47;;;2.23;;
56427;SDS011;42331;53.578;9.760;2023-06-26T10:04:30;2.55;;;1.33;;
56427;SDS011;42331;53.578;9.760;2023-06-26T10:07:01;2.07;;;1.37;;
56427;SDS011;42331;53.578;9.760;2023-06-26T10:09:35;1.80;;;0.90;;
56427;SDS011;42331;53.578;9.760;2023-06-26T10:12:14;1.92;;;1.13;;
56427;SDS011;42331;53.578;9.760;2023-06-26T10:14:52;1.90;;;1.07;;
56427;SDS011;42331;53.578;9.760;2023-06-26T10:17:27;2.10;;;0.82;;
56427;SDS011;42331;53.578;9.760;2023-06-26T10:20:01;1.27;;;0.80;;
56427;SDS011;42331;53.578;9.760;2023-06-26T10:22:33;1.15;;;0.73;;
56427;SDS011;42331;53.578;9.760;2023-06-26T10:25:09;1.38;;;0.85;;
56427;SDS011;42331;53.578;9.760;2023-06-26T10:27:43;1.48;;;0.85;;
56427;SDS011;42331;53.578;9.760;2023-06-26T10:30:19;0.98;;;0.55;;
56427;SDS011;42331;53.578;9.760;2023-06-26T10:32:53;1.17;;;0.68;;
56427;SDS011;42331;53.578;9.760;2023-06-26T10:35:24;1.15;;;0.60;;
56427;SDS011;42331;53.578;9.760;2023-06-26T10:38:02;1.23;;;0.77;;
56427;SDS011;42331;53.578;9.760;2023-06-26T10:40:41;1.23;;;0.73;;
56427;SDS011;42331;53.578;9.760;2023-06-26T10:43:15;1.02;;;0.70;;
56427;SDS011;42331;53.578;9.760;2023-06-26T10:45:47;1.48;;;0.95;;
56427;SDS011;42331;53.578;9.760;2023-06-26T10:48:24;1.70;;;1.20;;
56427;SDS011;42331;53.578;9.760;2023-06-26T10:51:03;1.70;;;1.00;;
56427;SDS011;42331;53.578;9.760;2023-06-26T10:53:49;1.60;;;0.80;;
56427;SDS011;42331;53.578;9.760;2023-06-26T10:59:20;1.85;;;0.85;;
56427;SDS011;42331;53.578;9.760;2023-06-26T11:01:59;2.63;;;1.55;;
56427;SDS011;42331;53.578;9.760;2023-06-26T11:07:14;1.77;;;0.95;;
56427;SDS011;42331;53.578;9.760;2023-06-26T11:10:02;3.92;;;1.23;;
56427;SDS011;42331;53.578;9.760;2023-06-26T11:12:41;1.80;;;1.10;;
56427;SDS011;42331;53.578;9.760;2023-06-26T11:15:17;1.27;;;0.63;;
56427;SDS011;42331;53.578;9.760;2023-06-26T11:17:49;1.15;;;0.70;;
56427;SDS011;42331;53.578;9.760;2023-06-26T11:20:20;1.17;;;0.73;;
56427;SDS011;42331;53.578;9.760;2023-06-26T11:22:52;1.10;;;0.67;;
56427;SDS011;42331;53.578;9.760;2023-06-26T11:27:54;0.80;;;0.50;;
56427;SDS011;42331;53.578;9.760;2023-06-26T11:30:25;0.60;;;0.40;;
56427;SDS011;42331;53.578;9.760;2023-06-26T11:35:36;1.13;;;0.50;;
56427;SDS011;42331;53.578;9.760;2023-06-26T11:38:10;2.78;;;1.35;;
56427;SDS011;42331;53.578;9.760;2023-06-26T11:40:41;0.50;;;0.30;;
56427;SDS011;42331;53.578;9.760;2023-06-26T11:43:12;1.27;;;0.63;;
56427;SDS011;42331;53.578;9.760;2023-06-26T11:45:43;0.52;;;0.35;;
56427;SDS011;42331;53.578;9.760;2023-06-26T11:48:14;0.53;;;0.37;;
56427;SDS011;42331;53.578;9.760;2023-06-26T11:50:45;0.67;;;0.30;;
56427;SDS011;42331;53.578;9.760;2023-06-26T11:53:20;0.65;;;0.50;;
56427;SDS011;42331;53.578;9.760;2023-06-26T11:55:50;0.43;;;0.30;;
56427;SDS011;42331;53.578;9.760;2023-06-26T11:58:21;0.90;;;0.40;;
56427;SDS011;42331;53.578;9.760;2023-06-26T12:00:52;0.10;;;0.10;;
56427;SDS011;42331;53.578;9.760;2023-06-26T12:03:22;0.60;;;0.47;;
56427;SDS011;42331;53.578;9.760;2023-06-26T12:05:53;0.60;;;0.40;;
56427;SDS011;42331;53.578;9.760;2023-06-26T12:08:24;0.83;;;0.40;;
56427;SDS011;42331;53.578;9.760;2023-06-26T12:10:55;1.55;;;0.40;;
56427;SDS011;42331;53.578;9.760;2023-06-26T12:13:26;0.90;;;0.50;;
56427;SDS011;42331;53.578;9.760;2023-06-26T12:15:57;0.97;;;0.50;;
56427;SDS011;42331;53.578;9.760;2023-06-26T12:18:34;0.17;;;0.13;;
56427;SDS011;42331;53.578;9.760;2023-06-26T12:21:06;0.25;;;0.15;;
56427;SDS011;42331;53.578;9.760;2023-06-26T12:23:39;1.10;;;0.20;;
56427;SDS011;42331;53.578;9.760;2023-06-26T12:26:20;0.75;;;0.45;;
56427;SDS011;42331;53.578;9.760;2023-06-26T12:28:51;0.90;;;0.50;;
56427;SDS011;42331;53.578;9.760;2023-06-26T12:31:22;0.17;;;0.13;;
56427;SDS011;42331;53.578;9.760;2023-06-26T12:33:53;0.27;;;0.20;;
56427;SDS011;42331;53.578;9.760;2023-06-26T12:36:23;0.40;;;0.20;;
56427;SDS011;42331;53.578;9.760;2023-06-26T12:38:54;0.97;;;0.40;;
56427;SDS011;42331;53.578;9.760;2023-06-26T12:41:25;0.90;;;0.47;;
56427;SDS011;42331;53.578;9.760;2023-06-26T12:43:56;0.40;;;0.20;;
56427;SDS011;42331;53.578;9.760;2023-06-26T12:46:33;0.20;;;0.20;;
56427;SDS011;42331;53.578;9.760;2023-06-26T12:49:07;0.40;;;0.28;;
56427;SDS011;42331;53.578;9.760;2023-06-26T12:51:38;1.50;;;0.90;;
56427;SDS011;42331;53.578;9.760;2023-06-26T12:54:10;0.45;;;0.30;;
56427;SDS011;42331;53.578;9.760;2023-06-26T12:56:41;0.10;;;0.10;;
56427;SDS011;42331;53.578;9.760;2023-06-26T12:59:11;0.93;;;0.60;;
56427;SDS011;42331;53.578;9.760;2023-06-26T13:01:42;0.70;;;0.50;;
56427;SDS011;42331;53.578;9.760;2023-06-26T13:04:13;0.40;;;0.30;;
56427;SDS011;42331;53.578;9.760;2023-06-26T13:06:44;0.37;;;0.23;;
56427;SDS011;42331;53.578;9.760;2023-06-26T13:09:15;0.10;;;0.10;;
56427;SDS011;42331;53.578;9.760;2023-06-26T13:11:46;0.60;;;0.38;;
56427;SDS011;42331;53.578;9.760;2023-06-26T13:14:17;0.10;;;0.10;;
56427;SDS011;42331;53.578;9.760;2023-06-26T13:16:47;0.30;;;0.20;;
56427;SDS011;42331;53.578;9.760;2023-06-26T13:19:18;0.30;;;0.23;;
56427;SDS011;42331;53.578;9.760;2023-06-26T13:21:49;0.33;;;0.27;;
56427;SDS011;42331;53.578;9.760;2023-06-26T13:24:19;1.23;;;0.67;;
56427;SDS011;42331;53.578;9.760;2023-06-26T13:26:50;0.87;;;0.47;;
56427;SDS011;42331;53.578;9.760;2023-06-26T13:29:21;0.30;;;0.10;;
56427;SDS011;42331;53.578;9.760;2023-06-26T13:31:52;1.03;;;0.63;;
56427;SDS011;42331;53.578;9.760;2023-06-26T13:34:24;0.20;;;0.20;;
56427;SDS011;42331;53.578;9.760;2023-06-26T13:36:57;0.30;;;0.20;;
56427;SDS011;42331;53.578;9.760;2023-06-26T13:39:30;0.38;;;0.20;;
56427;SDS011;42331;53.578;9.760;2023-06-26T13:42:00;0.20;;;0.10;;
56427;SDS011;42331;53.578;9.760;2023-06-26T13:44:31;0.37;;;0.10;;
56427;SDS011;42331;53.578;9.760;2023-06-26T13:47:02;1.50;;;0.83;;
56427;SDS011;42331;53.578;9.760;2023-06-26T13:49:33;0.67;;;0.30;;
56427;SDS011;42331;53.578;9.760;2023-06-26T13:52:03;0.63;;;0.40;;
56427;SDS011;42331;53.578;9.760;2023-06-26T13:54:35;0.25;;;0.20;;
56427;SDS011;42331;53.578;9.760;2023-06-26T13:57:09;0.73;;;0.28;;
56427;SDS011;42331;53.578;9.760;2023-06-26T13:59:40;0.45;;;0.22;;
56427;SDS011;42331;53.578;9.760;2023-06-26T14:02:10;0.10;;;0.10;;
56427;SDS011;42331;53.578;9.760;2023-06-26T14:04:41;0.27;;;0.20;;
56427;SDS011;42331;53.578;9.760;2023-06-26T14:07:12;0.63;;;0.20;;
56427;SDS011;42331;53.578;9.760;2023-06-26T14:09:42;0.53;;;0.20;;
56427;SDS011;42331;53.578;9.760;2023-06-26T14:12:13;0.57;;;0.20;;
56427;SDS011;42331;53.578;9.760;2023-06-26T14:14:44;0.10;;;0.10;;
56427;SDS011;42331;53.578;9.760;2023-06-26T14:17:15;0.30;;;0.30;;
56427;SDS011;42331;53.578;9.760;2023-06-26T14:19:46;0.37;;;0.20;;
56427;SDS011;42331;53.578;9.760;2023-06-26T14:22:17;0.30;;;0.20;;
56427;SDS011;42331;53.578;9.760;2023-06-26T14:24:48;0.22;;;0.10;;
56427;SDS011;42331;53.578;9.760;2023-06-26T14:27:19;0.30;;;0.30;;
56427;SDS011;42331;53.578;9.760;2023-06-26T14:29:49;0.47;;;0.30;;
56427;SDS011;42331;53.578;9.760;2023-06-26T14:32:20;0.60;;;0.20;;
56427;SDS011;42331;53.578;9.760;2023-06-26T14:34:51;0.50;;;0.20;;
56427;SDS011;42331;53.578;9.760;2023-06-26T14:37:21;0.40;;;0.30;;
56427;SDS011;42331;53.578;9.760;2023-06-26T14:39:52;0.10;;;0.10;;
56427;SDS011;42331;53.578;9.760;2023-06-26T14:42:23;0.10;;;0.10;;
56427;SDS011;42331;53.578;9.760;2023-06-26T14:44:54;0.33;;;0.03;;
56427;SDS011;42331;53.578;9.760;2023-06-26T14:49:57;0.20;;;0.10;;
56427;SDS011;42331;53.578;9.760;2023-06-26T14:52:28;0.27;;;0.20;;
56427;SDS011;42331;53.578;9.760;2023-06-26T14:54:58;0.73;;;0.20;;
56427;SDS011;42331;53.578;9.760;2023-06-26T14:57:29;0.27;;;0.10;;
56427;SDS011;42331;53.578;9.760;2023-06-26T15:00:00;0.10;;;0.07;;
56427;SDS011;42331;53.578;9.760;2023-06-26T15:02:31;0.43;;;0.20;;
56427;SDS011;42331;53.578;9.760;2023-06-26T15:05:02;0.20;;;0.10;;
56427;SDS011;42331;53.578;9.760;2023-06-26T15:07:45;0.30;;;0.10;;
56427;SDS011;42331;53.578;9.760;2023-06-26T15:10:16;2.20;;;0.50;;
56427;SDS011;42331;53.578;9.760;2023-06-26T15:12:47;0.83;;;0.20;;
56427;SDS011;42331;53.578;9.760;2023-06-26T15:15:18;0.50;;;0.23;;
56427;SDS011;42331;53.578;9.760;2023-06-26T15:20:20;0.20;;;0.10;;
56427;SDS011;42331;53.578;9.760;2023-06-26T15:22:50;0.13;;;0.10;;
56427;SDS011;42331;53.578;9.760;2023-06-26T15:25:21;0.30;;;0.20;;
56427;SDS011;42331;53.578;9.760;2023-06-26T15:27:52;0.20;;;0.10;;
56427;SDS011;42331;53.578;9.760;2023-06-26T15:30:22;0.10;;;0.10;;
56427;SDS011;42331;53.578;9.760;2023-06-26T15:32:53;0.23;;;0.10;;
56427;SDS011;42331;53.578;9.760;2023-06-26T15:35:24;0.53;;;0.40;;
56427;SDS011;42331;53.578;9.760;2023-06-26T15:37:55;0.10;;;0.10;;
56427;SDS011;42331;53.578;9.760;2023-06-26T15:40:25;0.50;;;0.20;;
56427;SDS011;42331;53.578;9.760;2023-06-26T15:42:56;0.37;;;0.27;;
56427;SDS011;42331;53.578;9.760;2023-06-26T15:45:27;0.90;;;0.40;;
56427;SDS011;42331;53.578;9.760;2023-06-26T15:47:57;0.57;;;0.30;;
56427;SDS011;42331;53.578;9.760;2023-06-26T15:50:28;0.33;;;0.10;;
56427;SDS011;42331;53.578;9.760;2023-06-26T15:53:01;0.10;;;0.10;;
56427;SDS011;42331;53.578;9.760;2023-06-26T15:55:33;0.45;;;0.20;;
56427;SDS011;42331;53.578;9.760;2023-06-26T15:58:04;0.77;;;0.57;;